Terminal Aerodrome Forecast
Issued by NWS Twin Cities, MN

Home | Current Version | Previous Version | Text Only | Print | Product List | Glossary Off
Versions: 1 2 3 4 5 6 7 8 9 10 11 12 13 14 15 16 17 18 19

000
FTUS43 KMPX 030952 AAA
TAFSTC
TAF AMD
KSTC 030952Z 0310/0406 18006KT P6SM VCSH BKN090
     FM031200 18008KT P6SM BKN090
     FM031700 28008KT P6SM VCSH BKN050 OVC080
     FM032000 33012G18KT P6SM BKN060
     FM040100 34006KT P6SM SCT060=

USA.gov is the U.S. government's official web portal to all federal, state and local government web resources and services.